Terminal Aerodrome Forecast
Issued by NWS Tampa Bay Area, FL

Home | Current Version | Previous Version | Text Only | Print | Product List | Glossary On
Versions: 1 2 3 4 5 6 7 8 9 10 11 12 13 14 15 16 17 18
000
FTUS42 KTBW 041700
TAFFMY
TAF
KFMY 041739Z 0418/0518 18011KT P6SM FEW040
     FM050000 21006KT P6SM FEW045 SCT250
     FM050500 13004KT P6SM FEW005
     FM051400 15008KT P6SM SCT020 BKN035=

USA.gov is the U.S. government's official web portal to all federal, state and local government web resources and services.